Time;durP1;ratioP1;P1;durP2;ratioP2;P2;SDS_P1;SDS_P2;PMS_P1;PMS_P2;Temp;Humidity;BMP_temperature;BMP_pressure;BME280_temperature;BME280_humidity;BME280_pressure;Samples;Min_cycle;Max_cycle;Signal;HPM_P1;HPM_P2
2023/05/18 00:00:59;;;;;;;;;;;9.50;66.70;;;;;;5036691;28;19943;-87
2023/05/18 00:03:24;;;;;;;;;;;9.40;67.10;;;;;;5018178;28;20000;-87
2023/05/18 00:05:50;;;;;;;;;;;9.50;67.20;;;;;;5016005;28;20001;-87
2023/05/18 00:08:15;;;;;;;;;;;9.40;67.80;;;;;;5003581;28;19961;-87
2023/05/18 00:10:41;;;;;;;;;;;9.30;67.90;;;;;;5014988;28;19956;-87
2023/05/18 00:13:07;;;;;;;;;;;9.30;67.30;;;;;;5010470;28;19925;-87
2023/05/18 00:15:33;;;;;;;;;;;9.30;67.90;;;;;;5020085;28;19917;-87
2023/05/18 00:17:58;;;;;;;;;;;9.30;68.00;;;;;;5023690;28;20235;-87
2023/05/18 00:20:25;;;;;;;;;;;9.30;68.00;;;;;;5010398;28;20287;-87
2023/05/18 00:22:51;;;;;;;;;;;9.40;67.20;;;;;;5009655;28;20378;-86
2023/05/18 00:25:17;;;;;;;;;;;9.20;67.90;;;;;;5010967;28;19925;-86
2023/05/18 00:27:42;;;;;;;;;;;9.20;68.40;;;;;;5019014;28;19917;-88
2023/05/18 00:30:08;;;;;;;;;;;9.20;67.60;;;;;;5014351;28;19924;-87
2023/05/18 00:32:34;;;;;;;;;;;9.10;68.60;;;;;;5022928;28;20260;-87
2023/05/18 00:34:59;;;;;;;;;;;9.10;68.50;;;;;;5033729;28;19932;-87
2023/05/18 00:37:25;;;;;;;;;;;9.10;69.00;;;;;;5014127;28;20382;-88
2023/05/18 00:39:50;;;;;;;;;;;9.10;69.30;;;;;;5032350;28;20319;-87
2023/05/18 00:42:16;;;;;;;;;;;9.10;68.50;;;;;;5020775;28;19960;-87
2023/05/18 00:44:41;;;;;;;;;;;9.10;68.80;;;;;;5014922;28;19914;-87
2023/05/18 00:47:08;;;;;;;;;;;9.10;68.90;;;;;;5015346;28;20000;-87
2023/05/18 00:49:33;;;;;;;;;;;9.10;68.30;;;;;;5014507;28;19963;-87
2023/05/18 00:51:59;;;;;;;;;;;9.00;68.30;;;;;;5012647;28;19913;-86
2023/05/18 00:54:25;;;;;;;;;;;8.90;69.20;;;;;;5018596;28;19913;-87
2023/05/18 00:56:50;;;;;;;;;;;8.80;70.40;;;;;;5042025;28;19913;-87
2023/05/18 00:59:17;;;;;;;;;;;8.90;70.80;;;;;;5014800;28;19924;-87
2023/05/18 01:01:45;;;;;;;;;;;9.00;70.50;;;;;;5011032;28;19980;-87
2023/05/18 01:04:12;;;;;;;;;;;9.10;70.00;;;;;;5025454;28;20390;-86
2023/05/18 01:06:40;;;;;;;;;;;9.00;69.80;;;;;;5020027;28;20287;-87
2023/05/18 01:09:06;;;;;;;;;;;9.10;69.30;;;;;;5016742;28;19963;-87
2023/05/18 01:11:38;;;;;;;;;;;8.90;70.10;;;;;;5019978;28;19995;-88
2023/05/18 01:14:08;;;;;;;;;;;9.00;69.20;;;;;;5006198;28;19920;-88
2023/05/18 01:16:39;;;;;;;;;;;9.00;68.90;;;;;;5012887;28;19952;-88
2023/05/18 01:19:23;;;;;;;;;;;9.00;69.20;;;;;;5029048;28;19916;-87
2023/05/18 01:21:56;;;;;;;;;;;8.80;69.50;;;;;;5029678;28;20388;-87
2023/05/18 01:24:28;;;;;;;;;;;8.70;69.70;;;;;;5012028;28;19996;-88
2023/05/18 01:26:56;;;;;;;;;;;8.70;70.20;;;;;;5016929;28;19920;-88
2023/05/18 01:29:23;;;;;;;;;;;8.80;70.10;;;;;;5014164;28;19925;-87
2023/05/18 01:31:49;;;;;;;;;;;8.70;69.20;;;;;;5012616;28;19921;-87
2023/05/18 01:34:14;;;;;;;;;;;8.60;70.10;;;;;;5013702;28;19921;-88
2023/05/18 01:36:40;;;;;;;;;;;8.60;70.00;;;;;;5012965;28;20020;-87
2023/05/18 01:39:06;;;;;;;;;;;8.50;71.10;;;;;;5031800;28;19924;-87
2023/05/18 01:41:33;;;;;;;;;;;8.50;70.80;;;;;;5014260;28;19940;-87
2023/05/18 01:44:16;;;;;;;;;;;8.60;71.10;;;;;;5004258;28;19918;-87
2023/05/18 01:47:00;;;;;;;;;;;8.50;71.20;;;;;;5007817;28;20357;-87
2023/05/18 01:49:26;;;;;;;;;;;8.50;71.40;;;;;;5035285;28;19921;-87
2023/05/18 01:51:52;;;;;;;;;;;8.40;71.10;;;;;;5042892;28;19917;-87
2023/05/18 01:54:19;;;;;;;;;;;8.50;71.30;;;;;;5014868;28;19913;-87
2023/05/18 01:56:46;;;;;;;;;;;8.50;70.90;;;;;;5014785;28;19909;-87
2023/05/18 01:59:11;;;;;;;;;;;8.40;71.60;;;;;;5012325;28;19913;-87
2023/05/18 02:01:37;;;;;;;;;;;8.40;71.80;;;;;;5031269;28;19956;-86
2023/05/18 02:04:06;;;;;;;;;;;8.40;70.80;;;;;;5032470;28;19916;-87
2023/05/18 02:06:32;;;;;;;;;;;8.20;70.90;;;;;;5017158;28;19939;-87
2023/05/18 02:08:57;;;;;;;;;;;8.30;70.90;;;;;;5020382;28;19917;-87
2023/05/18 02:11:23;;;;;;;;;;;8.30;71.80;;;;;;5038250;28;19920;-87
2023/05/18 02:13:48;;;;;;;;;;;8.20;71.60;;;;;;5040397;28;20426;-87
2023/05/18 02:16:14;;;;;;;;;;;8.20;72.10;;;;;;5008545;28;19914;-86
2023/05/18 02:18:39;;;;;;;;;;;8.10;72.00;;;;;;5019533;28;19916;-87
2023/05/18 02:21:05;;;;;;;;;;;8.20;72.10;;;;;;5035752;28;20059;-86
2023/05/18 02:23:30;;;;;;;;;;;8.20;72.20;;;;;;5040205;28;19958;-87
2023/05/18 02:25:56;;;;;;;;;;;8.20;71.70;;;;;;5035248;28;19959;-88
2023/05/18 02:28:21;;;;;;;;;;;8.10;71.50;;;;;;5032243;28;20469;-87
2023/05/18 02:30:47;;;;;;;;;;;8.00;71.60;;;;;;5013638;28;20397;-87
2023/05/18 02:33:12;;;;;;;;;;;8.00;72.10;;;;;;5009610;28;20012;-87
2023/05/18 02:35:39;;;;;;;;;;;8.10;72.10;;;;;;5013052;28;20021;-86
2023/05/18 02:38:05;;;;;;;;;;;8.10;72.80;;;;;;5025121;28;20566;-87
2023/05/18 02:40:30;;;;;;;;;;;8.00;72.40;;;;;;5015352;28;19914;-88
2023/05/18 02:42:56;;;;;;;;;;;8.10;72.20;;;;;;5030953;28;19947;-86
2023/05/18 02:45:21;;;;;;;;;;;8.00;72.30;;;;;;5011748;28;20334;-88
2023/05/18 02:47:47;;;;;;;;;;;8.00;72.20;;;;;;5030889;28;20643;-87
2023/05/18 02:50:13;;;;;;;;;;;7.90;72.30;;;;;;5013682;28;19917;-87
2023/05/18 02:52:38;;;;;;;;;;;7.90;73.00;;;;;;5031642;28;19964;-86
2023/05/18 02:55:04;;;;;;;;;;;8.00;72.80;;;;;;5032097;28;19913;-85
2023/05/18 02:57:31;;;;;;;;;;;8.00;73.10;;;;;;5034641;28;20318;-86
2023/05/18 02:59:57;;;;;;;;;;;7.90;72.20;;;;;;5009344;28;19921;-86
2023/05/18 03:02:22;;;;;;;;;;;8.00;72.80;;;;;;5016726;28;20318;-86
2023/05/18 03:04:53;;;;;;;;;;;7.90;72.50;;;;;;5033917;28;19916;-87
2023/05/18 03:07:19;;;;;;;;;;;7.80;73.30;;;;;;5038358;28;19913;-87
2023/05/18 03:09:45;;;;;;;;;;;7.80;73.80;;;;;;5014308;28;20023;-87
2023/05/18 03:12:10;;;;;;;;;;;7.90;73.10;;;;;;5027922;28;20020;-86
2023/05/18 03:14:35;;;;;;;;;;;7.90;72.40;;;;;;5016171;28;19909;-86
2023/05/18 03:17:04;;;;;;;;;;;8.00;71.80;;;;;;5014660;28;19913;-87
2023/05/18 03:19:33;;;;;;;;;;;7.80;72.60;;;;;;5019482;28;19948;-87
2023/05/18 03:21:59;;;;;;;;;;;7.60;72.70;;;;;;5010836;28;20004;-87
2023/05/18 03:24:25;;;;;;;;;;;7.70;73.60;;;;;;5021629;28;19952;-87
2023/05/18 03:26:52;;;;;;;;;;;7.90;73.20;;;;;;5020722;28;20031;-86
2023/05/18 03:29:18;;;;;;;;;;;7.80;73.10;;;;;;5034676;28;19913;-87
2023/05/18 03:31:43;;;;;;;;;;;7.90;73.40;;;;;;5017619;28;20290;-86
2023/05/18 03:34:09;;;;;;;;;;;7.90;72.60;;;;;;5024923;28;20386;-87
2023/05/18 03:36:35;;;;;;;;;;;7.70;73.00;;;;;;5024516;28;20000;-86
2023/05/18 03:39:01;;;;;;;;;;;7.80;72.70;;;;;;5015923;28;19944;-86
2023/05/18 03:41:28;;;;;;;;;;;7.80;72.90;;;;;;5017953;28;19909;-85
2023/05/18 03:43:53;;;;;;;;;;;7.80;73.60;;;;;;5038761;28;19912;-87
2023/05/18 03:46:19;;;;;;;;;;;7.70;73.10;;;;;;5059710;28;19913;-88
2023/05/18 03:48:44;;;;;;;;;;;7.60;73.10;;;;;;5018220;28;19925;-86
2023/05/18 03:51:10;;;;;;;;;;;7.60;73.80;;;;;;5016827;28;19909;-86
2023/05/18 03:53:35;;;;;;;;;;;7.70;74.00;;;;;;5034392;28;19921;-87
2023/05/18 03:56:01;;;;;;;;;;;7.80;73.40;;;;;;5018100;28;19987;-86
2023/05/18 03:58:28;;;;;;;;;;;7.70;73.70;;;;;;5003596;28;19953;-87
2023/05/18 04:00:53;;;;;;;;;;;7.70;73.70;;;;;;5015274;28;19920;-86
2023/05/18 04:03:20;;;;;;;;;;;7.70;73.20;;;;;;5019285;28;19920;-87
2023/05/18 04:05:45;;;;;;;;;;;7.60;73.30;;;;;;5018840;28;19947;-87
2023/05/18 04:08:13;;;;;;;;;;;7.40;73.60;;;;;;5014544;28;20068;-87
2023/05/18 04:10:40;;;;;;;;;;;7.60;73.70;;;;;;5016519;28;19917;-87
2023/05/18 04:13:06;;;;;;;;;;;7.50;73.90;;;;;;5034265;28;20382;-87
2023/05/18 04:15:32;;;;;;;;;;;7.50;74.00;;;;;;5018494;28;20019;-86
2023/05/18 04:17:58;;;;;;;;;;;7.40;74.60;;;;;;5021711;28;19912;-87
2023/05/18 04:20:27;;;;;;;;;;;7.40;74.20;;;;;;5024266;28;19914;-86
2023/05/18 04:22:52;;;;;;;;;;;7.30;74.30;;;;;;5003514;28;20337;-87
2023/05/18 04:25:19;;;;;;;;;;;7.30;74.50;;;;;;5013464;28;19917;-87
2023/05/18 04:27:44;;;;;;;;;;;7.10;75.00;;;;;;5032663;28;20286;-87
2023/05/18 04:30:10;;;;;;;;;;;7.10;75.90;;;;;;5014952;28;19924;-87
2023/05/18 04:32:36;;;;;;;;;;;7.20;75.60;;;;;;5020330;28;19920;-87
2023/05/18 04:35:03;;;;;;;;;;;7.20;76.00;;;;;;5031136;28;19917;-87
2023/05/18 04:37:28;;;;;;;;;;;7.30;75.60;;;;;;5018456;28;20007;-87
2023/05/18 04:39:54;;;;;;;;;;;7.50;75.50;;;;;;5025215;28;20414;-86
2023/05/18 04:42:19;;;;;;;;;;;7.50;75.20;;;;;;5016473;28;19913;-87
2023/05/18 04:44:45;;;;;;;;;;;7.60;75.30;;;;;;5031733;28;20001;-86
2023/05/18 04:47:11;;;;;;;;;;;7.60;75.20;;;;;;5033606;28;19999;-87
2023/05/18 04:49:36;;;;;;;;;;;7.60;75.20;;;;;;5012876;28;20036;-87
2023/05/18 04:52:05;;;;;;;;;;;7.60;75.30;;;;;;5034150;28;20379;-86
2023/05/18 04:54:30;;;;;;;;;;;7.60;75.40;;;;;;5024422;28;20027;-86
2023/05/18 04:56:56;;;;;;;;;;;7.80;73.80;;;;;;5013593;28;20663;-86
2023/05/18 04:59:25;;;;;;;;;;;7.70;74.20;;;;;;4999328;28;19960;-87
2023/05/18 05:01:51;;;;;;;;;;;7.70;74.80;;;;;;5011997;28;19913;-86
2023/05/18 05:04:16;;;;;;;;;;;7.60;74.60;;;;;;5001188;28;19920;-87
2023/05/18 05:06:41;;;;;;;;;;;7.80;74.20;;;;;;5014384;28;19913;-87
2023/05/18 05:09:07;;;;;;;;;;;7.80;74.70;;;;;;5014138;28;20267;-86
2023/05/18 05:11:33;;;;;;;;;;;8.00;73.00;;;;;;5022748;28;19924;-87
2023/05/18 05:14:00;;;;;;;;;;;7.90;73.40;;;;;;5014190;28;20298;-87
2023/05/18 05:16:25;;;;;;;;;;;8.00;74.30;;;;;;5015747;28;20381;-87
2023/05/18 05:18:50;;;;;;;;;;;8.20;73.90;;;;;;5015158;28;19914;-86
2023/05/18 05:21:16;;;;;;;;;;;8.30;73.60;;;;;;5014771;28;19913;-86
2023/05/18 05:23:41;;;;;;;;;;;8.40;72.20;;;;;;5017952;28;19913;-86
2023/05/18 05:26:07;;;;;;;;;;;8.40;71.60;;;;;;5034143;28;19967;-87
2023/05/18 05:28:32;;;;;;;;;;;8.40;72.70;;;;;;5006935;28;20027;-86
2023/05/18 05:30:58;;;;;;;;;;;8.60;72.40;;;;;;5030229;28;19913;-86
2023/05/18 05:33:23;;;;;;;;;;;8.60;72.90;;;;;;5011466;28;19909;-86
2023/05/18 05:35:48;;;;;;;;;;;8.50;73.10;;;;;;5013692;28;19913;-86
2023/05/18 05:38:16;;;;;;;;;;;8.70;72.00;;;;;;5012232;28;20379;-86
2023/05/18 05:40:42;;;;;;;;;;;8.80;71.30;;;;;;5013208;28;19920;-86
2023/05/18 05:43:15;;;;;;;;;;;9.00;71.40;;;;;;5021246;28;19910;-88
2023/05/18 05:45:42;;;;;;;;;;;9.00;71.00;;;;;;5030435;28;19935;-85
2023/05/18 05:48:08;;;;;;;;;;;9.00;70.80;;;;;;5030895;28;20000;-87
2023/05/18 05:50:33;;;;;;;;;;;9.00;70.90;;;;;;5024504;28;20148;-85
2023/05/18 05:52:59;;;;;;;;;;;9.00;70.90;;;;;;5012465;28;20012;-86
2023/05/18 05:55:25;;;;;;;;;;;9.10;71.20;;;;;;5031133;28;19913;-86
2023/05/18 05:57:50;;;;;;;;;;;9.10;70.00;;;;;;5029579;28;19947;-86
2023/05/18 06:00:16;;;;;;;;;;;9.00;71.70;;;;;;5015506;28;20417;-86
2023/05/18 06:02:41;;;;;;;;;;;8.80;71.70;;;;;;5007208;28;19921;-85
2023/05/18 06:05:07;;;;;;;;;;;8.70;71.10;;;;;;5010243;28;19913;-88
2023/05/18 06:07:33;;;;;;;;;;;8.60;71.70;;;;;;5014513;28;20449;-86
2023/05/18 06:09:58;;;;;;;;;;;8.70;72.70;;;;;;5033782;28;20334;-87
2023/05/18 06:12:24;;;;;;;;;;;8.90;70.20;;;;;;5010501;28;20000;-86
2023/05/18 06:14:53;;;;;;;;;;;8.80;70.40;;;;;;5012192;28;19932;-86
2023/05/18 06:17:18;;;;;;;;;;;8.80;71.30;;;;;;5016008;28;19916;-86
2023/05/18 06:19:44;;;;;;;;;;;8.80;70.90;;;;;;5016916;28;20047;-86
2023/05/18 06:22:09;;;;;;;;;;;8.80;70.80;;;;;;5021377;28;19920;-85
2023/05/18 06:24:35;;;;;;;;;;;8.80;70.60;;;;;;5010540;28;19944;-85
2023/05/18 06:27:00;;;;;;;;;;;8.90;70.50;;;;;;5010804;28;20291;-85
2023/05/18 06:29:26;;;;;;;;;;;8.90;69.60;;;;;;5021138;28;19913;-86
2023/05/18 06:31:51;;;;;;;;;;;9.00;70.60;;;;;;5009643;28;19921;-86
2023/05/18 06:34:17;;;;;;;;;;;9.10;70.00;;;;;;5017492;28;19915;-86
2023/05/18 06:36:42;;;;;;;;;;;9.10;69.40;;;;;;5016403;28;19917;-86
2023/05/18 06:39:08;;;;;;;;;;;9.10;69.20;;;;;;5009762;28;19913;-86
2023/05/18 06:41:33;;;;;;;;;;;9.30;68.90;;;;;;5016575;28;19999;-86
2023/05/18 06:44:00;;;;;;;;;;;9.30;68.70;;;;;;5039861;28;19917;-86
2023/05/18 06:46:25;;;;;;;;;;;9.20;69.40;;;;;;5016001;28;19920;-87
2023/05/18 06:48:51;;;;;;;;;;;9.20;70.10;;;;;;5015192;28;19996;-86
2023/05/18 06:51:17;;;;;;;;;;;9.20;67.80;;;;;;4999268;28;19959;-86
2023/05/18 06:53:42;;;;;;;;;;;9.20;68.50;;;;;;5014172;28;19932;-85
2023/05/18 06:56:10;;;;;;;;;;;9.30;68.60;;;;;;5015733;28;19917;-88
2023/05/18 06:58:36;;;;;;;;;;;9.30;69.00;;;;;;5036815;28;19909;-87
2023/05/18 07:01:01;;;;;;;;;;;9.40;67.30;;;;;;5020926;28;19921;-87
2023/05/18 07:03:27;;;;;;;;;;;9.40;68.20;;;;;;5016210;28;19913;-87
2023/05/18 07:05:53;;;;;;;;;;;9.50;67.90;;;;;;5015851;28;19917;-86
2023/05/18 07:08:18;;;;;;;;;;;9.60;68.40;;;;;;5007766;28;19916;-87
2023/05/18 07:10:44;;;;;;;;;;;9.60;68.80;;;;;;5049436;22;21210;-82
2023/05/18 07:13:09;;;;;;;;;;;9.60;68.00;;;;;;5031184;28;20302;-83
2023/05/18 07:15:35;;;;;;;;;;;9.60;67.80;;;;;;5024020;28;20333;-84
2023/05/18 07:18:00;;;;;;;;;;;9.60;68.90;;;;;;5027685;28;19951;-84
2023/05/18 07:20:26;;;;;;;;;;;9.60;68.50;;;;;;5033780;28;19925;-84
2023/05/18 07:22:53;;;;;;;;;;;9.70;68.70;;;;;;5031848;28;19921;-82
2023/05/18 07:25:19;;;;;;;;;;;9.80;69.20;;;;;;5028645;28;19917;-81
2023/05/18 07:27:45;;;;;;;;;;;9.90;68.40;;;;;;5031939;28;19943;-82
2023/05/18 07:30:10;;;;;;;;;;;9.90;68.20;;;;;;5030203;28;19925;-84
2023/05/18 07:32:36;;;;;;;;;;;10.10;68.90;;;;;;5041636;28;19913;-83
2023/05/18 07:35:04;;;;;;;;;;;10.10;67.10;;;;;;5038913;28;19917;-91
2023/05/18 07:37:31;;;;;;;;;;;10.20;68.10;;;;;;5029960;28;19917;-86
2023/05/18 07:39:56;;;;;;;;;;;10.30;65.80;;;;;;5030760;28;19917;-89
2023/05/18 07:42:28;;;;;;;;;;;10.40;66.60;;;;;;5032278;28;19947;-87
2023/05/18 07:44:54;;;;;;;;;;;10.30;66.10;;;;;;5025633;28;19956;-85
2023/05/18 07:47:20;;;;;;;;;;;10.30;66.40;;;;;;5030257;28;20286;-83
2023/05/18 07:49:46;;;;;;;;;;;10.40;66.40;;;;;;5028795;28;19933;-84
2023/05/18 07:52:14;;;;;;;;;;;10.50;67.80;;;;;;5034344;28;19914;-83
2023/05/18 07:54:42;;;;;;;;;;;10.60;66.80;;;;;;5030333;28;19976;-84
2023/05/18 07:57:13;;;;;;;;;;;10.80;65.60;;;;;;5032879;28;19964;-87
2023/05/18 07:59:39;;;;;;;;;;;10.80;65.20;;;;;;5029193;28;19920;-91
2023/05/18 08:02:05;;;;;;;;;;;10.70;65.80;;;;;;5031027;28;19913;-85
2023/05/18 08:04:30;;;;;;;;;;;10.90;63.40;;;;;;5025092;28;19981;-86
2023/05/18 08:06:59;;;;;;;;;;;11.00;62.70;;;;;;5029092;28;20029;-86
2023/05/18 08:09:38;;;;;;;;;;;11.10;62.30;;;;;;5028521;28;19967;-86
2023/05/18 08:12:04;;;;;;;;;;;11.00;63.60;;;;;;5028773;28;20007;-86
2023/05/18 08:14:30;;;;;;;;;;;10.90;62.40;;;;;;5038272;28;19909;-88
2023/05/18 08:16:55;;;;;;;;;;;10.90;63.20;;;;;;5035866;28;19919;-90
2023/05/18 08:19:21;;;;;;;;;;;11.10;61.30;;;;;;5041283;28;19917;-85
2023/05/18 08:21:46;;;;;;;;;;;11.10;60.80;;;;;;5029956;28;19913;-87
2023/05/18 08:24:12;;;;;;;;;;;11.10;62.80;;;;;;5031925;28;19913;-92
2023/05/18 08:26:45;;;;;;;;;;;11.10;62.40;;;;;;5035741;28;19917;-90
2023/05/18 08:29:11;;;;;;;;;;;11.10;63.10;;;;;;5027805;28;20024;-92
2023/05/18 08:31:36;;;;;;;;;;;11.30;63.10;;;;;;5026241;28;19976;-85
2023/05/18 08:34:09;;;;;;;;;;;11.30;62.20;;;;;;5025015;28;19910;-88
2023/05/18 08:36:36;;;;;;;;;;;11.50;63.20;;;;;;5036528;28;19913;-89
2023/05/18 08:39:03;;;;;;;;;;;11.40;62.10;;;;;;5047714;28;19952;-87
2023/05/18 08:41:34;;;;;;;;;;;11.60;63.50;;;;;;5052040;28;19940;-88
2023/05/18 08:44:02;;;;;;;;;;;11.60;63.00;;;;;;5041074;28;20324;-88
2023/05/18 08:47:03;;;;;;;;;;;11.80;62.40;;;;;;5032274;28;19966;-89
2023/05/18 08:49:23;;;;;;;;;;;11.90;62.80;;;;;;5027988;28;19917;-91
2023/05/18 08:51:56;;;;;;;;;;;11.80;60.90;;;;;;5032829;28;19913;-89
2023/05/18 08:54:22;;;;;;;;;;;11.80;61.50;;;;;;5027434;28;19924;-87
2023/05/18 08:56:49;;;;;;;;;;;12.00;60.90;;;;;;5028149;28;19913;-85
2023/05/18 08:59:23;;;;;;;;;;;11.90;58.60;;;;;;5029243;28;21474;-90
2023/05/18 09:01:53;;;;;;;;;;;11.90;59.00;;;;;;5028620;28;19920;-89
2023/05/18 09:04:20;;;;;;;;;;;11.80;60.80;;;;;;5029309;28;20301;-88
2023/05/18 09:06:46;;;;;;;;;;;12.00;62.30;;;;;;5024405;28;19921;-88
2023/05/18 09:09:12;;;;;;;;;;;12.10;57.90;;;;;;5025608;28;19913;-88
2023/05/18 09:11:38;;;;;;;;;;;12.10;60.00;;;;;;5023526;28;19992;-89
2023/05/18 09:14:04;;;;;;;;;;;12.10;59.40;;;;;;5032114;28;19957;-90
2023/05/18 09:16:32;;;;;;;;;;;12.00;59.30;;;;;;5027112;28;19949;-91
2023/05/18 09:18:58;;;;;;;;;;;12.10;59.70;;;;;;5028095;28;19914;-88
2023/05/18 09:21:25;;;;;;;;;;;12.10;60.60;;;;;;5028592;28;19920;-87
2023/05/18 09:23:50;;;;;;;;;;;12.30;60.30;;;;;;5032259;28;19917;-86
2023/05/18 09:26:26;;;;;;;;;;;12.30;60.70;;;;;;5029001;28;19913;-93
2023/05/18 09:28:52;;;;;;;;;;;12.30;59.50;;;;;;5026575;28;20353;-89
2023/05/18 09:31:23;;;;;;;;;;;12.30;61.60;;;;;;5025804;28;19944;-88
2023/05/18 09:33:52;;;;;;;;;;;12.40;59.20;;;;;;5027852;28;19918;-83
2023/05/18 09:36:38;;;;;;;;;;;12.50;58.20;;;;;;5030246;28;19920;-88
2023/05/18 09:39:08;;;;;;;;;;;12.80;58.00;;;;;;5020028;28;19967;-87
2023/05/18 09:41:36;;;;;;;;;;;12.70;58.20;;;;;;5031553;28;20012;-84
2023/05/18 09:44:07;;;;;;;;;;;12.80;56.20;;;;;;5031281;28;20012;-85
2023/05/18 09:46:34;;;;;;;;;;;12.70;56.80;;;;;;5021028;28;19917;-84
2023/05/18 09:48:59;;;;;;;;;;;12.80;57.10;;;;;;5029801;28;19964;-84
2023/05/18 09:51:28;;;;;;;;;;;12.70;56.20;;;;;;5033289;28;19921;-83
2023/05/18 09:53:57;;;;;;;;;;;12.80;56.90;;;;;;5051933;28;19947;-87
2023/05/18 09:56:23;;;;;;;;;;;12.90;59.80;;;;;;5036654;28;19963;-87
2023/05/18 09:59:06;;;;;;;;;;;12.80;56.00;;;;;;5034257;28;20402;-91
2023/05/18 10:01:32;;;;;;;;;;;12.80;57.30;;;;;;5016256;28;20396;-85
2023/05/18 10:04:06;;;;;;;;;;;12.80;56.90;;;;;;5017911;28;19927;-88
2023/05/18 10:06:31;;;;;;;;;;;12.80;57.70;;;;;;5036933;28;19913;-85
2023/05/18 10:08:57;;;;;;;;;;;12.70;57.70;;;;;;5038233;28;20016;-85
2023/05/18 10:11:23;;;;;;;;;;;12.80;57.10;;;;;;5016924;28;19953;-85
2023/05/18 10:14:15;;;;;;;;;;;12.80;56.70;;;;;;5022861;28;20363;-86
2023/05/18 10:16:41;;;;;;;;;;;13.00;57.10;;;;;;5012040;28;20009;-89
2023/05/18 10:19:08;;;;;;;;;;;13.00;57.70;;;;;;5035300;28;20355;-88
2023/05/18 10:21:34;;;;;;;;;;;13.10;56.70;;;;;;5031518;28;19909;-89
2023/05/18 10:24:02;;;;;;;;;;;12.90;57.40;;;;;;5034923;28;20000;-87
2023/05/18 10:26:29;;;;;;;;;;;13.00;58.60;;;;;;5033758;28;19918;-84
2023/05/18 10:28:56;;;;;;;;;;;13.20;55.90;;;;;;5030950;28;19917;-84
2023/05/18 10:31:22;;;;;;;;;;;13.30;57.20;;;;;;5030165;28;19928;-84
2023/05/18 10:33:49;;;;;;;;;;;13.40;57.40;;;;;;5033288;28;20294;-85
2023/05/18 10:36:16;;;;;;;;;;;13.50;56.70;;;;;;5028322;28;19913;-85
2023/05/18 10:38:45;;;;;;;;;;;13.60;53.20;;;;;;5035185;28;19917;-87
2023/05/18 10:41:12;;;;;;;;;;;13.30;54.40;;;;;;5023095;28;19921;-84
2023/05/18 10:43:39;;;;;;;;;;;13.20;55.50;;;;;;5023323;28;21418;-86
2023/05/18 10:46:07;;;;;;;;;;;13.30;56.40;;;;;;5034143;28;19913;-87
2023/05/18 10:48:36;;;;;;;;;;;13.30;59.10;;;;;;5017508;28;19941;-86
2023/05/18 10:51:06;;;;;;;;;;;13.30;59.30;;;;;;5017033;28;19916;-85
2023/05/18 10:53:37;;;;;;;;;;;13.50;56.80;;;;;;5015345;28;19913;-89
2023/05/18 10:56:02;;;;;;;;;;;13.50;54.80;;;;;;5035509;28;19932;-87
2023/05/18 10:58:29;;;;;;;;;;;13.60;57.50;;;;;;5039584;28;20366;-87
2023/05/18 11:00:56;;;;;;;;;;;13.80;57.40;;;;;;5022297;28;19913;-87
2023/05/18 11:03:24;;;;;;;;;;;13.60;55.80;;;;;;5017647;28;19960;-84
2023/05/18 11:05:51;;;;;;;;;;;13.60;55.10;;;;;;5035868;28;19909;-85
2023/05/18 11:08:26;;;;;;;;;;;13.60;54.70;;;;;;5030879;28;19916;-86
2023/05/18 11:11:02;;;;;;;;;;;13.80;53.60;;;;;;5029391;28;19920;-86
2023/05/18 11:13:43;;;;;;;;;;;13.70;55.50;;;;;;5034484;28;20063;-87
2023/05/18 11:16:08;;;;;;;;;;;13.70;57.00;;;;;;5035725;28;19913;-84
2023/05/18 11:18:39;;;;;;;;;;;13.70;54.30;;;;;;5035589;28;19937;-85
2023/05/18 11:21:20;;;;;;;;;;;13.90;53.20;;;;;;5039567;28;20008;-85
2023/05/18 11:24:04;;;;;;;;;;;13.80;56.30;;;;;;5036670;28;19984;-85
2023/05/18 11:26:30;;;;;;;;;;;13.70;55.00;;;;;;5022915;28;20027;-84
2023/05/18 11:28:57;;;;;;;;;;;13.60;54.90;;;;;;5032783;28;19920;-85
2023/05/18 11:31:41;;;;;;;;;;;13.80;55.20;;;;;;5036660;28;19909;-86
2023/05/18 11:34:25;;;;;;;;;;;14.00;53.20;;;;;;5035474;28;19932;-85
2023/05/18 11:36:53;;;;;;;;;;;13.90;55.20;;;;;;5027187;28;20503;-85
2023/05/18 11:39:22;;;;;;;;;;;14.00;54.60;;;;;;5033835;28;19917;-86
2023/05/18 11:41:57;;;;;;;;;;;13.90;54.80;;;;;;5034493;28;19909;-84
2023/05/18 11:44:26;;;;;;;;;;;14.00;54.60;;;;;;5036219;28;19913;-85
2023/05/18 11:47:08;;;;;;;;;;;14.00;54.70;;;;;;5041038;28;20607;-86
2023/05/18 11:49:43;;;;;;;;;;;14.00;55.00;;;;;;5043779;28;20022;-84
2023/05/18 11:52:19;;;;;;;;;;;14.10;54.30;;;;;;5050954;28;19920;-87
2023/05/18 11:54:51;;;;;;;;;;;14.20;53.70;;;;;;5041907;28;19996;-85
2023/05/18 11:57:28;;;;;;;;;;;14.10;54.40;;;;;;5037559;28;19909;-85
2023/05/18 12:00:11;;;;;;;;;;;14.10;54.10;;;;;;5039054;28;19909;-84
2023/05/18 12:02:37;;;;;;;;;;;14.20;53.40;;;;;;5036988;28;20298;-84
2023/05/18 12:05:22;;;;;;;;;;;14.30;53.30;;;;;;5029301;28;19909;-84
2023/05/18 12:07:54;;;;;;;;;;;14.30;55.10;;;;;;5036454;28;19917;-85
2023/05/18 12:10:20;;;;;;;;;;;14.20;55.90;;;;;;5034180;22;19929;-82
2023/05/18 12:12:50;;;;;;;;;;;14.10;53.80;;;;;;5016122;28;19909;-82
2023/05/18 12:15:20;;;;;;;;;;;14.30;53.00;;;;;;5017971;28;19940;-82
2023/05/18 12:17:46;;;;;;;;;;;14.40;52.70;;;;;;5016999;28;19963;-82
2023/05/18 12:20:15;;;;;;;;;;;14.30;53.70;;;;;;5014618;28;19956;-83
2023/05/18 12:22:45;;;;;;;;;;;14.40;56.90;;;;;;5016103;28;20332;-83
2023/05/18 12:25:11;;;;;;;;;;;14.50;55.80;;;;;;5015424;28;20028;-81
2023/05/18 12:27:41;;;;;;;;;;;14.50;54.20;;;;;;5001172;28;20019;-83
2023/05/18 12:30:19;;;;;;;;;;;14.40;53.70;;;;;;5012613;28;19968;-83
2023/05/18 12:32:52;;;;;;;;;;;14.50;53.30;;;;;;5016268;28;19920;-83
2023/05/18 12:35:27;;;;;;;;;;;14.60;52.80;;;;;;5014658;28;19932;-81
2023/05/18 12:38:00;;;;;;;;;;;14.60;53.60;;;;;;5009601;28;19914;-84
2023/05/18 12:40:37;;;;;;;;;;;14.60;54.30;;;;;;5015088;28;19917;-84
2023/05/18 12:43:08;;;;;;;;;;;14.60;54.50;;;;;;5014189;28;19931;-84
2023/05/18 12:45:34;;;;;;;;;;;14.80;53.90;;;;;;5019592;28;19913;-84
2023/05/18 12:48:05;;;;;;;;;;;14.60;52.20;;;;;;5021520;28;19909;-84
2023/05/18 12:50:31;;;;;;;;;;;14.60;53.00;;;;;;5011934;28;19955;-84
2023/05/18 12:53:08;;;;;;;;;;;14.70;53.10;;;;;;5009678;28;19926;-84
2023/05/18 12:55:37;;;;;;;;;;;14.80;52.70;;;;;;5009737;28;20366;-84
2023/05/18 12:58:07;;;;;;;;;;;14.90;54.60;;;;;;5007491;28;20448;-82
2023/05/18 13:00:37;;;;;;;;;;;14.90;55.00;;;;;;5004062;28;20376;-84
2023/05/18 13:03:16;;;;;;;;;;;14.90;52.20;;;;;;5012450;28;20385;-83
2023/05/18 13:05:45;;;;;;;;;;;15.00;53.50;;;;;;5001787;28;20032;-85
2023/05/18 13:08:20;;;;;;;;;;;15.00;52.30;;;;;;5001780;28;19913;-83
2023/05/18 13:10:46;;;;;;;;;;;15.10;53.30;;;;;;5006863;28;19940;-84
2023/05/18 13:13:17;;;;;;;;;;;15.10;51.90;;;;;;5009006;28;19947;-84
2023/05/18 13:15:43;;;;;;;;;;;15.10;51.90;;;;;;5006870;28;20341;-84
2023/05/18 13:18:09;;;;;;;;;;;15.10;53.30;;;;;;5007100;28;19913;-81
2023/05/18 13:20:38;;;;;;;;;;;15.10;52.70;;;;;;5022738;22;19929;-81
2023/05/18 13:23:07;;;;;;;;;;;15.10;52.40;;;;;;5040023;28;19920;-83
2023/05/18 13:25:33;;;;;;;;;;;15.10;53.40;;;;;;5043305;28;19955;-83
2023/05/18 13:27:58;;;;;;;;;;;15.10;52.90;;;;;;5026325;28;19917;-81
2023/05/18 13:30:24;;;;;;;;;;;15.30;53.40;;;;;;5036418;28;20278;-85
2023/05/18 13:32:51;;;;;;;;;;;15.30;51.10;;;;;;5033500;28;20003;-86
2023/05/18 13:35:17;;;;;;;;;;;15.30;51.30;;;;;;5032077;28;20309;-85
2023/05/18 13:37:45;;;;;;;;;;;15.40;52.20;;;;;;5034072;28;20003;-85
2023/05/18 13:40:12;;;;;;;;;;;15.40;52.00;;;;;;5035550;28;20362;-86
2023/05/18 13:42:38;;;;;;;;;;;15.40;50.90;;;;;;5054037;28;19908;-85
2023/05/18 13:45:03;;;;;;;;;;;15.40;51.10;;;;;;5035148;28;20033;-83
2023/05/18 13:47:29;;;;;;;;;;;15.40;49.80;;;;;;5051031;28;19995;-83
2023/05/18 13:49:54;;;;;;;;;;;15.40;51.70;;;;;;5040874;28;20419;-83
2023/05/18 13:52:20;;;;;;;;;;;15.30;50.70;;;;;;5021031;28;19921;-84
2023/05/18 13:54:45;;;;;;;;;;;15.40;50.40;;;;;;5015910;28;20352;-82
2023/05/18 13:57:11;;;;;;;;;;;15.50;51.40;;;;;;5041845;28;19996;-82
2023/05/18 13:59:36;;;;;;;;;;;15.60;49.50;;;;;;5034867;28;20011;-83
2023/05/18 14:02:02;;;;;;;;;;;15.60;48.90;;;;;;5025904;28;20176;-82
2023/05/18 14:04:28;;;;;;;;;;;15.80;49.10;;;;;;5021995;28;19959;-83
2023/05/18 14:06:54;;;;;;;;;;;15.60;50.00;;;;;;5028554;28;20012;-83
2023/05/18 14:09:24;;;;;;;;;;;15.50;50.80;;;;;;5045224;28;19916;-83
2023/05/18 14:11:50;;;;;;;;;;;15.60;49.00;;;;;;5034413;28;19952;-82
2023/05/18 14:14:15;;;;;;;;;;;15.50;50.10;;;;;;5039128;28;20399;-82
2023/05/18 14:16:41;;;;;;;;;;;15.60;50.20;;;;;;5045149;28;20287;-81
2023/05/18 14:19:06;;;;;;;;;;;15.50;49.30;;;;;;5042973;28;19919;-82
2023/05/18 14:21:32;;;;;;;;;;;15.40;51.10;;;;;;5029165;28;20019;-82
2023/05/18 14:24:02;;;;;;;;;;;15.60;51.40;;;;;;5035256;28;19916;-81
2023/05/18 14:26:28;;;;;;;;;;;15.60;50.70;;;;;;5034136;28;19988;-81